Time;durP1;ratioP1;P1;durP2;ratioP2;P2;SDS_P1;SDS_P2;PMS_P1;PMS_P2;Temp;Humidity;BMP_temperature;BMP_pressure;BME280_temperature;BME280_humidity;BME280_pressure;Samples;Min_cycle;Max_cycle;Signal;HPM_P1;HPM_P2
2022/10/24 00:00:44;;;;;;;0.50;0.50;;;15.10;99.90;;;;;;5094695;28;20221;-68
2022/10/24 00:03:11;;;;;;;0.50;0.50;;;15.10;99.90;;;;;;5094911;28;20221;-69
2022/10/24 00:05:41;;;;;;;2.80;2.60;;;15.10;99.90;;;;;;5094899;28;20406;-68
2022/10/24 00:08:06;;;;;;;1.80;1.70;;;15.20;99.90;;;;;;5094707;28;21002;-69
2022/10/24 00:10:32;;;;;;;0.50;0.50;;;15.00;99.90;;;;;;5094302;28;20500;-71
2022/10/24 00:12:58;;;;;;;2.30;1.00;;;15.00;99.90;;;;;;5094534;28;20196;-70
2022/10/24 00:15:23;;;;;;;0.43;0.43;;;15.00;99.90;;;;;;5094618;28;20623;-69
2022/10/24 00:17:49;;;;;;;0.40;0.40;;;15.30;99.90;;;;;;5094582;28;20215;-71
2022/10/24 00:20:15;;;;;;;0.73;0.60;;;15.10;99.90;;;;;;5093969;28;20205;-71
2022/10/24 00:22:40;;;;;;;0.73;0.50;;;15.10;99.90;;;;;;5094346;28;20614;-70
2022/10/24 00:25:06;;;;;;;0.50;0.50;;;15.10;99.90;;;;;;5094367;28;20169;-68
2022/10/24 00:27:34;;;;;;;0.90;0.90;;;15.10;99.90;;;;;;5093472;28;20184;-72
2022/10/24 00:30:00;;;;;;;0.53;0.53;;;15.10;99.90;;;;;;5093696;28;20455;-71
2022/10/24 00:32:25;;;;;;;5.23;1.23;;;15.10;99.90;;;;;;5094468;28;20449;-71
2022/10/24 00:34:51;;;;;;;0.50;0.50;;;15.10;99.90;;;;;;5094479;28;20182;-68
2022/10/24 00:37:17;;;;;;;1.23;0.70;;;15.00;99.90;;;;;;5093882;28;20176;-70
2022/10/24 00:39:42;;;;;;;1.13;1.13;;;15.00;99.90;;;;;;5093563;28;20196;-69
2022/10/24 00:42:10;;;;;;;0.60;0.60;;;15.10;99.90;;;;;;5094225;28;20179;-69
2022/10/24 00:44:38;;;;;;;1.83;1.00;;;15.00;99.90;;;;;;5094254;28;20173;-71
2022/10/24 00:47:06;;;;;;;0.50;0.43;;;15.00;99.90;;;;;;5094324;28;20451;-71
2022/10/24 00:49:59;;;;;;;4.30;0.67;;;14.90;99.90;;;;;;5093860;28;20807;-69
2022/10/24 00:52:33;;;;;;;1.07;0.77;;;14.90;99.90;;;;;;5093990;28;20432;-70
2022/10/24 00:55:01;;;;;;;0.40;0.40;;;15.00;99.90;;;;;;5094296;28;20400;-71
2022/10/24 00:57:33;;;;;;;0.60;0.60;;;15.00;99.90;;;;;;5094218;28;20499;-70
2022/10/24 01:00:08;;;;;;;0.30;0.30;;;15.00;99.90;;;;;;5093380;28;20753;-68
2022/10/24 01:02:34;;;;;;;1.93;1.37;;;;;;;;;;5093699;28;20869;-69
2022/10/24 01:05:01;;;;;;;2.60;0.80;;;14.90;99.90;;;;;;5093840;28;20455;-71
2022/10/24 01:07:51;;;;;;;0.30;0.30;;;14.80;99.90;;;;;;5094071;28;20440;-68
2022/10/24 01:10:35;;;;;;;0.30;0.30;;;14.80;99.90;;;;;;5093852;28;20780;-70
2022/10/24 01:13:32;;;;;;;1.03;1.03;;;14.80;99.90;;;;;;5093881;28;20399;-71
2022/10/24 01:16:15;;;;;;;0.93;0.93;;;14.80;99.90;;;;;;5093932;28;20385;-70
2022/10/24 01:18:48;;;;;;;1.13;0.80;;;14.90;99.90;;;;;;5093526;28;20454;-72
2022/10/24 01:21:23;;;;;;;0.30;0.30;;;14.90;99.90;;;;;;5093609;28;20408;-69
2022/10/24 01:23:52;;;;;;;0.73;0.67;;;14.90;99.90;;;;;;5093619;28;20421;-71
2022/10/24 01:26:26;;;;;;;0.73;0.60;;;14.90;99.90;;;;;;5093417;28;20505;-69
2022/10/24 01:29:16;;;;;;;1.80;1.03;;;14.80;99.90;;;;;;5093119;28;20502;-69
2022/10/24 01:31:50;;;;;;;0.40;0.40;;;14.80;99.90;;;;;;5093495;28;20395;-72
2022/10/24 01:34:39;;;;;;;0.30;0.30;;;14.90;99.90;;;;;;5093806;28;20483;-71
2022/10/24 01:37:12;;;;;;;0.40;0.40;;;14.90;99.90;;;;;;5093938;28;20753;-71
2022/10/24 01:39:46;;;;;;;0.40;0.40;;;14.80;99.90;;;;;;5096957;28;20915;-70
2022/10/24 01:42:16;;;;;;;0.40;0.40;;;14.80;99.90;;;;;;5097345;28;20768;-71
2022/10/24 01:44:44;;;;;;;0.43;0.43;;;14.70;99.90;;;;;;5097320;28;20914;-69
2022/10/24 01:47:25;;;;;;;0.43;0.43;;;14.70;99.90;;;;;;5097409;28;20407;-70
2022/10/24 01:49:57;;;;;;;0.40;0.40;;;14.60;99.90;;;;;;5096620;28;20477;-71
2022/10/24 01:52:26;;;;;;;0.90;0.90;;;14.70;99.90;;;;;;5097187;28;20399;-70
2022/10/24 01:54:53;;;;;;;0.60;0.60;;;14.70;99.90;;;;;;5097061;28;20404;-71
2022/10/24 01:57:18;;;;;;;1.50;0.73;;;14.80;99.90;;;;;;5097154;28;20479;-70
2022/10/24 01:59:47;;;;;;;1.00;0.90;;;14.80;99.90;;;;;;5096697;28;20849;-71
2022/10/24 02:02:19;;;;;;;1.10;1.10;;;14.70;99.90;;;;;;5097319;28;20172;-69
2022/10/24 02:05:17;;;;;;;9.97;1.53;;;14.70;99.90;;;;;;5096991;28;20399;-69
2022/10/24 02:07:46;;;;;;;1.20;1.20;;;14.70;99.90;;;;;;5087970;28;20424;-71
2022/10/24 02:10:34;;;;;;;0.47;0.47;;;14.70;99.90;;;;;;5096380;28;20443;-71
2022/10/24 02:13:24;;;;;;;0.50;0.50;;;14.70;99.90;;;;;;5097073;28;20747;-70
2022/10/24 02:15:54;;;;;;;0.50;0.50;;;14.80;99.90;;;;;;5096780;28;20399;-70
2022/10/24 02:18:20;;;;;;;0.77;0.77;;;14.80;99.90;;;;;;5096634;28;20461;-69
2022/10/24 02:21:04;;;;;;;0.40;0.40;;;14.70;99.90;;;;;;5096761;28;20801;-70
2022/10/24 02:23:35;;;;;;;3.13;1.20;;;14.80;99.90;;;;;;5096542;28;20459;-70
2022/10/24 02:26:05;;;;;;;0.70;0.70;;;14.80;99.90;;;;;;5096159;28;21003;-70
2022/10/24 02:28:41;;;;;;;0.80;0.80;;;14.90;99.90;;;;;;5096348;28;20467;-68
2022/10/24 02:31:22;;;;;;;0.60;0.60;;;14.80;99.90;;;;;;5096545;28;20742;-70
2022/10/24 02:33:50;;;;;;;0.50;0.50;;;14.90;99.90;;;;;;5096081;28;20405;-71
2022/10/24 02:36:20;;;;;;;0.30;0.30;;;14.80;99.90;;;;;;5096197;28;20437;-69
2022/10/24 02:38:49;;;;;;;0.40;0.40;;;14.70;99.90;;;;;;5096028;28;20811;-71
2022/10/24 02:41:21;;;;;;;0.60;0.60;;;14.60;99.90;;;;;;5096296;28;20436;-72
2022/10/24 02:43:49;;;;;;;0.97;0.80;;;14.60;99.90;;;;;;5096535;28;20395;-69
2022/10/24 02:46:17;;;;;;;0.40;0.40;;;14.60;99.90;;;;;;5096278;28;20466;-70
2022/10/24 02:48:48;;;;;;;19.97;1.07;;;14.70;99.90;;;;;;5095375;28;20459;-71
2022/10/24 02:51:14;;;;;;;8.90;0.63;;;;;;;;;;5095937;28;20402;-71
2022/10/24 02:53:40;;;;;;;0.30;0.30;;;14.70;99.90;;;;;;5096126;28;20392;-71
2022/10/24 02:56:06;;;;;;;0.57;0.57;;;14.70;99.90;;;;;;5096306;28;20418;-70
2022/10/24 02:58:32;;;;;;;0.60;0.53;;;14.70;99.90;;;;;;5095986;28;20205;-70
2022/10/24 03:00:57;;;;;;;2.30;0.90;;;14.60;99.90;;;;;;5095491;28;20407;-71
2022/10/24 03:03:23;;;;;;;0.43;0.43;;;14.60;99.90;;;;;;5095668;28;20196;-69
2022/10/24 03:05:49;;;;;;;0.83;0.83;;;14.60;99.90;;;;;;5095775;28;20200;-71
2022/10/24 03:08:14;;;;;;;0.70;0.70;;;14.50;99.90;;;;;;5095595;28;20200;-70
2022/10/24 03:10:40;;;;;;;1.70;0.50;;;14.60;99.90;;;;;;5095922;28;20173;-69
2022/10/24 03:13:06;;;;;;;0.40;0.40;;;14.60;99.90;;;;;;5095910;28;20196;-68
2022/10/24 03:15:32;;;;;;;0.40;0.40;;;14.60;99.90;;;;;;5095331;28;20172;-71
2022/10/24 03:17:58;;;;;;;0.40;0.40;;;14.70;99.90;;;;;;5095032;28;20460;-71
2022/10/24 03:20:24;;;;;;;0.50;0.50;;;14.50;99.90;;;;;;5095425;28;20390;-69
2022/10/24 03:22:50;;;;;;;0.40;0.40;;;14.60;99.90;;;;;;5095414;28;20166;-70
2022/10/24 03:25:16;;;;;;;0.40;0.40;;;14.60;99.90;;;;;;5095430;28;20519;-69
2022/10/24 03:27:42;;;;;;;2.60;1.03;;;14.60;99.90;;;;;;5095729;28;20734;-69
2022/10/24 03:30:08;;;;;;;1.23;1.13;;;14.60;99.90;;;;;;5094736;28;20448;-69
2022/10/24 03:32:34;;;;;;;1.30;1.20;;;14.60;99.90;;;;;;5095096;28;20157;-71
2022/10/24 03:35:01;;;;;;;3.13;0.50;;;14.60;99.90;;;;;;5095379;28;20407;-70
2022/10/24 03:37:27;;;;;;;0.40;0.40;;;14.60;99.90;;;;;;5095244;28;20177;-71
2022/10/24 03:39:53;;;;;;;0.67;0.60;;;14.50;99.90;;;;;;5094826;28;20431;-69
2022/10/24 03:42:19;;;;;;;1.37;0.50;;;14.60;99.90;;;;;;5095380;28;20403;-71
2022/10/24 03:44:45;;;;;;;0.30;0.30;;;14.60;99.90;;;;;;5094790;28;20399;-70
2022/10/24 03:47:11;;;;;;;0.63;0.63;;;14.60;99.90;;;;;;5094832;28;20669;-71
2022/10/24 03:49:37;;;;;;;6.50;1.40;;;;;;;;;;5093165;28;20204;-68
2022/10/24 03:52:03;;;;;;;0.40;0.40;;;;;;;;;;5095001;28;20636;-69
2022/10/24 03:54:28;;;;;;;0.30;0.30;;;14.70;99.90;;;;;;5095123;28;20395;-69
2022/10/24 03:56:54;;;;;;;0.30;0.30;;;14.70;99.90;;;;;;5095139;28;20933;-71
2022/10/24 03:59:20;;;;;;;0.70;0.70;;;14.60;99.90;;;;;;5094415;28;20204;-68
2022/10/24 04:01:46;;;;;;;0.30;0.30;;;14.50;99.90;;;;;;5094459;28;20483;-70
2022/10/24 04:04:11;;;;;;;0.80;0.80;;;14.50;99.90;;;;;;5094795;28;20173;-72
2022/10/24 04:06:38;;;;;;;0.30;0.30;;;14.50;99.90;;;;;;5094764;28;20172;-71
2022/10/24 04:09:04;;;;;;;0.30;0.30;;;;;;;;;;5094198;28;20201;-71
2022/10/24 04:11:30;;;;;;;0.30;0.30;;;;;;;;;;5094171;28;20436;-69
2022/10/24 04:13:56;;;;;;;0.50;0.50;;;14.50;99.90;;;;;;5094686;28;20770;-68
2022/10/24 04:16:22;;;;;;;0.40;0.40;;;14.60;99.90;;;;;;5094674;28;20487;-71
2022/10/24 04:18:49;;;;;;;0.50;0.50;;;14.60;99.90;;;;;;5094178;28;20191;-71
2022/10/24 04:21:15;;;;;;;0.40;0.40;;;14.60;99.90;;;;;;5094218;28;20423;-70
2022/10/24 04:23:43;;;;;;;0.40;0.40;;;14.60;99.90;;;;;;5094590;28;20414;-70
2022/10/24 04:26:11;;;;;;;0.30;0.30;;;14.50;99.90;;;;;;5094263;28;20837;-71
2022/10/24 04:28:36;;;;;;;0.30;0.30;;;14.60;99.90;;;;;;5094190;28;20455;-68
2022/10/24 04:31:02;;;;;;;0.40;0.40;;;14.60;99.90;;;;;;5092616;28;20443;-69
2022/10/24 04:33:28;;;;;;;0.30;0.30;;;14.50;99.90;;;;;;5093976;28;20494;-70
2022/10/24 04:35:54;;;;;;;0.83;0.83;;;14.50;99.90;;;;;;5093799;28;20173;-70
2022/10/24 04:38:20;;;;;;;0.50;0.50;;;14.50;99.90;;;;;;5093819;28;20522;-70
2022/10/24 04:40:48;;;;;;;0.30;0.30;;;14.50;99.90;;;;;;5093774;28;20172;-71
2022/10/24 04:43:14;;;;;;;0.40;0.40;;;14.50;99.90;;;;;;5093989;28;20414;-71
2022/10/24 04:45:39;;;;;;;0.43;0.43;;;14.50;99.90;;;;;;5093947;28;20411;-69
2022/10/24 04:48:05;;;;;;;0.40;0.40;;;14.80;99.90;;;;;;5093836;28;20172;-71
2022/10/24 04:50:31;;;;;;;1.07;0.97;;;14.60;99.90;;;;;;5094064;28;20186;-71
2022/10/24 04:52:57;;;;;;;0.40;0.40;;;14.60;99.90;;;;;;5094313;28;20407;-69
2022/10/24 04:55:25;;;;;;;0.40;0.40;;;14.60;99.90;;;;;;5093626;28;20176;-70
2022/10/24 04:57:51;;;;;;;0.50;0.50;;;14.50;99.90;;;;;;5093471;28;20184;-71
2022/10/24 05:00:17;;;;;;;0.50;0.50;;;14.50;99.90;;;;;;5093671;28;20411;-68
2022/10/24 05:02:42;;;;;;;0.50;0.50;;;14.50;99.90;;;;;;5093950;28;20514;-71
2022/10/24 05:05:08;;;;;;;0.40;0.40;;;14.50;99.90;;;;;;5093725;28;20168;-71
2022/10/24 05:07:34;;;;;;;0.70;0.70;;;14.50;99.90;;;;;;5093637;28;20165;-69
2022/10/24 05:09:59;;;;;;;1.87;1.77;;;14.50;99.90;;;;;;5093141;28;20284;-69
2022/10/24 05:12:25;;;;;;;0.50;0.50;;;14.50;99.90;;;;;;5094512;28;20174;-71
2022/10/24 05:14:51;;;;;;;0.40;0.40;;;14.50;99.90;;;;;;5097637;28;20251;-70
2022/10/24 05:17:16;;;;;;;0.47;0.40;;;14.50;99.90;;;;;;5097621;28;20173;-68
2022/10/24 05:19:42;;;;;;;0.60;0.60;;;14.50;99.90;;;;;;5097268;28;20586;-70
2022/10/24 05:22:08;;;;;;;1.90;1.80;;;14.50;99.90;;;;;;5097634;28;20165;-71
2022/10/24 05:24:33;;;;;;;1.47;1.47;;;14.50;99.90;;;;;;5097826;28;20180;-69
2022/10/24 05:26:59;;;;;;;0.50;0.40;;;14.40;99.90;;;;;;5097244;28;20426;-69
2022/10/24 05:29:31;;;;;;;0.50;0.50;;;14.40;99.90;;;;;;5097149;28;20247;-71
2022/10/24 05:31:56;;;;;;;0.50;0.50;;;14.40;99.90;;;;;;5097959;28;20196;-71
2022/10/24 05:34:22;;;;;;;0.30;0.30;;;14.40;99.90;;;;;;5097788;28;20867;-68
2022/10/24 05:36:48;;;;;;;0.70;0.60;;;14.40;99.90;;;;;;5097822;28;20505;-69
2022/10/24 05:39:13;;;;;;;0.40;0.40;;;14.40;99.90;;;;;;5097425;28;20202;-69
2022/10/24 05:41:39;;;;;;;0.80;0.80;;;14.40;99.90;;;;;;5097283;28;20169;-70
2022/10/24 05:44:05;;;;;;;0.30;0.30;;;14.40;99.90;;;;;;5097524;28;20516;-71
2022/10/24 05:46:30;;;;;;;0.90;0.90;;;14.50;99.90;;;;;;5097391;28;20176;-69
2022/10/24 05:48:56;;;;;;;0.30;0.30;;;14.50;99.90;;;;;;5096884;28;20197;-71
2022/10/24 05:51:22;;;;;;;3.47;0.60;;;14.40;99.90;;;;;;5097703;28;20176;-71
2022/10/24 05:53:47;;;;;;;0.70;0.70;;;14.30;99.90;;;;;;5096951;28;20178;-70
2022/10/24 05:56:13;;;;;;;0.50;0.50;;;14.30;99.90;;;;;;5097386;28;20165;-71
2022/10/24 05:58:39;;;;;;;0.50;0.50;;;14.20;99.90;;;;;;5096864;28;20200;-72
2022/10/24 06:01:04;;;;;;;0.57;0.57;;;14.30;99.90;;;;;;5096989;28;20172;-70
2022/10/24 06:03:30;;;;;;;1.07;1.07;;;14.30;99.90;;;;;;5097236;28;20177;-72
2022/10/24 06:05:56;;;;;;;0.60;0.60;;;14.30;99.90;;;;;;5097278;28;20263;-69
2022/10/24 06:08:21;;;;;;;0.47;0.47;;;14.20;99.90;;;;;;5096830;28;20252;-69
2022/10/24 06:10:49;;;;;;;0.40;0.40;;;14.20;99.90;;;;;;5096529;28;20173;-71
2022/10/24 06:13:16;;;;;;;0.30;0.30;;;14.30;99.90;;;;;;5096813;28;20171;-69
2022/10/24 06:15:42;;;;;;;0.73;0.73;;;14.30;99.90;;;;;;5096989;28;20409;-71
2022/10/24 06:18:08;;;;;;;0.60;0.60;;;14.20;99.90;;;;;;5096901;28;20490;-71
2022/10/24 06:20:35;;;;;;;0.60;0.60;;;14.20;99.90;;;;;;5096236;28;20409;-68
2022/10/24 06:23:00;;;;;;;0.87;0.87;;;14.20;99.90;;;;;;5096365;28;20756;-72
2022/10/24 06:25:26;;;;;;;0.50;0.50;;;14.20;99.90;;;;;;5095234;28;20743;-68
2022/10/24 06:27:52;;;;;;;0.93;0.93;;;14.40;99.90;;;;;;5096427;28;20180;-69
2022/10/24 06:30:17;;;;;;;0.40;0.40;;;14.20;99.90;;;;;;5096373;28;20257;-69
2022/10/24 06:32:43;;;;;;;1.20;1.03;;;14.30;99.90;;;;;;5095038;28;20165;-71
2022/10/24 06:35:12;;;;;;;0.40;0.40;;;15.00;99.90;;;;;;5093461;28;20173;-71
2022/10/24 06:37:38;;;;;;;0.50;0.50;;;14.30;99.90;;;;;;5095962;28;20170;-70
2022/10/24 06:40:04;;;;;;;1.57;1.50;;;14.30;99.90;;;;;;5094015;28;20435;-71
2022/10/24 06:42:29;;;;;;;3.10;1.33;;;14.30;99.90;;;;;;5095706;28;20418;-70
2022/10/24 06:44:55;;;;;;;0.40;0.40;;;14.30;99.90;;;;;;5095993;28;20497;-68
2022/10/24 06:47:21;;;;;;;0.30;0.30;;;14.20;99.90;;;;;;5095973;28;20259;-70
2022/10/24 06:49:46;;;;;;;0.47;0.47;;;14.20;99.90;;;;;;5095402;28;20673;-68
2022/10/24 06:52:12;;;;;;;0.40;0.40;;;14.30;99.90;;;;;;5095771;28;20574;-70
2022/10/24 06:54:38;;;;;;;3.33;2.10;;;14.30;99.90;;;;;;5096114;28;20176;-69
2022/10/24 06:57:04;;;;;;;1.37;0.67;;;14.40;99.90;;;;;;5095769;28;20312;-71
2022/10/24 06:59:30;;;;;;;0.30;0.30;;;;;;;;;;5095362;28;20665;-71
2022/10/24 07:01:57;;;;;;;1.50;1.17;;;14.30;99.90;;;;;;5095674;28;20485;-71
2022/10/24 07:04:23;;;;;;;0.40;0.40;;;14.40;99.90;;;;;;5095413;28;20473;-70
2022/10/24 07:06:49;;;;;;;0.40;0.40;;;14.40;99.90;;;;;;5095679;28;20399;-69
2022/10/24 07:09:14;;;;;;;0.43;0.40;;;14.40;99.90;;;;;;5095276;28;20201;-69
2022/10/24 07:11:40;;;;;;;0.30;0.30;;;14.40;99.90;;;;;;5095444;28;20570;-72
2022/10/24 07:14:08;;;;;;;0.30;0.30;;;14.40;99.90;;;;;;5095586;28;20526;-72
2022/10/24 07:16:33;;;;;;;0.77;0.77;;;14.50;99.90;;;;;;5095442;28;20168;-71
2022/10/24 07:18:59;;;;;;;0.40;0.40;;;14.50;99.90;;;;;;5094986;28;20481;-70
2022/10/24 07:21:28;;;;;;;2.83;0.87;;;14.50;99.90;;;;;;5095336;28;20238;-71
2022/10/24 07:23:55;;;;;;;0.40;0.40;;;14.50;99.90;;;;;;5095296;28;20180;-71
2022/10/24 07:26:23;;;;;;;0.50;0.50;;;14.60;99.90;;;;;;5094898;28;20518;-70
2022/10/24 07:28:53;;;;;;;0.77;0.70;;;14.60;99.90;;;;;;5094790;28;20458;-72
2022/10/24 07:31:24;;;;;;;1.37;1.27;;;14.50;99.90;;;;;;5095252;28;20403;-69
2022/10/24 07:33:51;;;;;;;0.40;0.40;;;14.40;99.90;;;;;;5094879;28;20402;-70
2022/10/24 07:36:19;;;;;;;0.53;0.53;;;14.30;99.90;;;;;;5094749;28;20431;-70
2022/10/24 07:38:46;;;;;;;0.40;0.40;;;14.30;99.90;;;;;;5094676;28;20419;-68
2022/10/24 07:41:11;;;;;;;10.93;1.43;;;14.30;99.90;;;;;;5094907;28;20502;-71
2022/10/24 07:43:37;;;;;;;0.40;0.40;;;14.20;99.90;;;;;;5094973;28;20494;-69
2022/10/24 07:46:11;;;;;;;1.50;0.77;;;14.20;99.90;;;;;;5094861;28;20294;-71
2022/10/24 07:48:38;;;;;;;0.30;0.30;;;14.30;99.90;;;;;;5094724;28;20581;-70
2022/10/24 07:51:14;;;;;;;0.30;0.30;;;14.30;99.90;;;;;;5094415;28;20403;-71
2022/10/24 07:53:40;;;;;;;0.80;0.70;;;14.30;99.90;;;;;;5094695;28;20405;-72
2022/10/24 07:56:10;;;;;;;0.50;0.50;;;14.30;99.90;;;;;;5094652;28;20404;-70
2022/10/24 07:58:36;;;;;;;0.30;0.30;;;14.40;99.90;;;;;;5094584;28;20433;-70
2022/10/24 08:01:05;;;;;;;0.63;0.63;;;14.30;99.90;;;;;;5092984;28;20483;-69
2022/10/24 08:03:30;;;;;;;0.90;0.60;;;14.30;99.90;;;;;;5094432;28;20418;-68
2022/10/24 08:05:56;;;;;;;0.67;0.67;;;14.30;99.90;;;;;;5094450;28;20876;-71
2022/10/24 08:08:22;;;;;;;0.40;0.40;;;14.30;99.90;;;;;;5092820;28;20265;-70
2022/10/24 08:10:48;;;;;;;0.40;0.40;;;14.30;99.90;;;;;;5094118;28;20204;-69
2022/10/24 08:13:14;;;;;;;0.30;0.30;;;14.30;99.90;;;;;;5094079;28;20464;-69
2022/10/24 08:15:40;;;;;;;1.03;0.90;;;14.30;99.90;;;;;;5094383;28;20179;-69
2022/10/24 08:18:05;;;;;;;0.60;0.60;;;14.20;99.90;;;;;;5094105;28;20174;-69
2022/10/24 08:20:31;;;;;;;2.10;0.87;;;14.30;99.90;;;;;;5094091;28;20410;-69
2022/10/24 08:22:57;;;;;;;0.83;0.80;;;14.20;99.90;;;;;;5093960;28;20169;-70
2022/10/24 08:25:23;;;;;;;0.40;0.40;;;14.20;99.90;;;;;;5094034;28;20406;-72
2022/10/24 08:27:49;;;;;;;0.50;0.50;;;14.20;99.90;;;;;;5093909;28;20430;-70
2022/10/24 08:30:16;;;;;;;3.93;0.50;;;;;;;;;;5093494;28;20204;-71
2022/10/24 08:32:42;;;;;;;0.53;0.53;;;14.30;99.90;;;;;;5093952;28;20426;-71
2022/10/24 08:35:08;;;;;;;0.40;0.40;;;14.30;99.90;;;;;;5093996;28;20872;-70
2022/10/24 08:37:37;;;;;;;0.47;0.47;;;14.30;99.90;;;;;;5094134;28;20452;-69
2022/10/24 08:40:14;;;;;;;1.17;1.07;;;14.10;99.90;;;;;;5093552;28;20435;-69
2022/10/24 08:42:40;;;;;;;2.10;1.03;;;14.00;99.90;;;;;;5094022;28;20417;-70
2022/10/24 08:45:25;;;;;;;1.50;0.70;;;13.90;99.90;;;;;;5093794;28;20407;-70
2022/10/24 08:48:01;;;;;;;0.80;0.43;;;13.90;99.90;;;;;;5093305;28;20606;-72
2022/10/24 08:50:30;;;;;;;0.40;0.40;;;13.90;99.90;;;;;;5093476;28;20414;-71
2022/10/24 08:53:26;;;;;;;0.63;0.63;;;13.90;99.90;;;;;;5094115;28;20777;-69
2022/10/24 08:55:58;;;;;;;3.00;2.83;;;14.10;99.90;;;;;;5093986;28;20391;-71
2022/10/24 08:58:36;;;;;;;0.53;0.53;;;14.10;99.90;;;;;;5093767;28;20427;-69
2022/10/24 09:01:13;;;;;;;0.30;0.30;;;14.10;99.90;;;;;;5093562;28;20876;-70
2022/10/24 09:03:48;;;;;;;0.40;0.40;;;14.20;99.90;;;;;;5093623;28;20401;-71
2022/10/24 09:06:19;;;;;;;0.30;0.30;;;14.30;99.90;;;;;;5093560;28;20409;-70
2022/10/24 09:09:00;;;;;;;0.40;0.40;;;14.20;99.90;;;;;;5093357;28;20457;-68
2022/10/24 09:11:29;;;;;;;0.60;0.60;;;14.20;99.90;;;;;;5093520;28;20406;-71
2022/10/24 09:13:55;;;;;;;1.17;1.07;;;14.10;99.90;;;;;;5093420;28;20394;-70
2022/10/24 09:16:22;;;;;;;0.50;0.50;;;14.10;99.90;;;;;;5093438;28;20395;-70
2022/10/24 09:18:52;;;;;;;0.40;0.40;;;13.90;99.90;;;;;;5093175;28;20915;-69
2022/10/24 09:21:18;;;;;;;0.30;0.30;;;13.80;99.90;;;;;;5093467;28;20405;-72
2022/10/24 09:23:44;;;;;;;0.40;0.40;;;13.80;99.90;;;;;;5093326;28;20469;-71
2022/10/24 09:26:29;;;;;;;0.40;0.40;;;13.90;99.90;;;;;;5093311;28;20438;-68
2022/10/24 09:28:55;;;;;;;0.50;0.50;;;14.00;99.90;;;;;;5093168;28;20823;-70
2022/10/24 09:31:23;;;;;;;0.57;0.40;;;14.00;99.90;;;;;;5093359;28;20409;-69
2022/10/24 09:33:51;;;;;;;0.40;0.40;;;13.90;99.90;;;;;;5093379;28;20787;-70
2022/10/24 09:36:19;;;;;;;0.63;0.63;;;14.00;99.90;;;;;;5093409;28;20451;-72
2022/10/24 09:38:47;;;;;;;0.40;0.40;;;14.10;99.90;;;;;;5093201;28;20510;-71
2022/10/24 09:41:21;;;;;;;0.30;0.30;;;14.10;99.90;;;;;;5093410;28;20802;-71
2022/10/24 09:43:54;;;;;;;0.33;0.33;;;14.20;99.90;;;;;;5093287;28;20422;-71
2022/10/24 09:46:20;;;;;;;0.30;0.30;;;14.10;99.90;;;;;;5093419;28;20879;-68
2022/10/24 09:48:53;;;;;;;0.40;0.40;;;14.10;99.90;;;;;;5092910;28;20510;-70
2022/10/24 09:51:25;;;;;;;0.60;0.60;;;14.10;99.90;;;;;;5093350;28;20176;-70
2022/10/24 09:54:05;;;;;;;1.03;0.63;;;14.00;99.90;;;;;;5093119;28;20395;-70
2022/10/24 09:56:35;;;;;;;0.43;0.43;;;14.00;99.90;;;;;;5093182;28;20406;-70
2022/10/24 09:59:35;;;;;;;0.40;0.40;;;14.00;99.90;;;;;;5094363;28;20422;-69
2022/10/24 10:02:09;;;;;;;0.30;0.30;;;13.90;99.90;;;;;;5096688;28;20395;-69
2022/10/24 10:04:40;;;;;;;0.70;0.63;;;13.80;99.90;;;;;;5096706;28;20417;-70
2022/10/24 10:07:13;;;;;;;0.67;0.50;;;13.80;99.90;;;;;;5096913;28;20407;-71
2022/10/24 10:09:54;;;;;;;0.30;0.30;;;13.70;99.90;;;;;;5096379;28;20822;-71
2022/10/24 10:12:33;;;;;;;0.30;0.30;;;13.70;99.90;;;;;;5096573;28;20406;-69
2022/10/24 10:15:18;;;;;;;0.30;0.30;;;13.70;99.90;;;;;;5096517;28;20435;-70
2022/10/24 10:17:52;;;;;;;0.30;0.30;;;13.70;99.90;;;;;;5096695;28;20399;-70
2022/10/24 10:20:36;;;;;;;0.30;0.30;;;13.70;99.90;;;;;;5096178;28;20402;-71
2022/10/24 10:23:24;;;;;;;0.30;0.30;;;13.70;99.90;;;;;;5096369;28;20398;-71
2022/10/24 10:26:16;;;;;;;0.30;0.30;;;13.80;99.90;;;;;;5096335;28;20637;-69
2022/10/24 10:28:50;;;;;;;0.30;0.30;;;13.70;99.90;;;;;;5096310;28;20457;-72
2022/10/24 10:31:18;;;;;;;0.30;0.30;;;13.80;99.90;;;;;;5096163;28;20401;-71
2022/10/24 10:33:51;;;;;;;0.40;0.40;;;13.80;99.90;;;;;;5096191;28;20913;-72
2022/10/24 10:36:25;;;;;;;0.30;0.30;;;13.80;99.90;;;;;;5096322;28;20395;-70
2022/10/24 10:39:32;;;;;;;0.60;0.50;;;13.90;99.90;;;;;;5096263;28;20509;-71
2022/10/24 10:42:11;;;;;;;0.87;0.40;;;13.90;99.90;;;;;;5096026;28;20405;-68
2022/10/24 10:44:47;;;;;;;1.30;0.50;;;14.00;99.90;;;;;;5095977;28;20401;-70
2022/10/24 10:47:18;;;;;;;0.40;0.40;;;14.10;99.90;;;;;;5095920;28;20410;-69
2022/10/24 10:49:47;;;;;;;0.60;0.60;;;14.30;99.90;;;;;;5095605;28;20450;-69
2022/10/24 10:52:28;;;;;;;0.60;0.60;;;14.30;99.90;;;;;;5095781;28;20527;-70
2022/10/24 10:55:15;;;;;;;0.40;0.40;;;14.40;99.90;;;;;;5095675;28;20414;-72
2022/10/24 10:57:48;;;;;;;0.40;0.40;;;14.40;99.90;;;;;;5095852;28;20391;-71
2022/10/24 11:00:36;;;;;;;0.30;0.30;;;14.40;99.90;;;;;;5095397;28;20427;-70
2022/10/24 11:03:24;;;;;;;2.30;2.00;;;14.40;99.90;;;;;;5095908;28;20403;-71
2022/10/24 11:06:15;;;;;;;0.40;0.40;;;14.50;99.90;;;;;;5096233;28;20957;-70
2022/10/24 11:08:57;;;;;;;1.27;0.70;;;14.60;99.90;;;;;;5095309;28;20895;-69
2022/10/24 11:11:43;;;;;;;3.90;0.60;;;14.70;99.90;;;;;;5094962;28;20403;-70
2022/10/24 11:14:30;;;;;;;0.53;0.50;;;14.80;99.90;;;;;;5094257;28;20420;-70
2022/10/24 11:17:01;;;;;;;0.40;0.40;;;14.80;99.90;;;;;;5095294;28;20391;-69
2022/10/24 11:20:03;;;;;;;0.47;0.47;;;14.80;99.90;;;;;;5095021;28;20427;-71
2022/10/24 11:22:39;;;;;;;0.40;0.40;;;14.90;99.90;;;;;;5095303;28;20403;-71
2022/10/24 11:25:17;;;;;;;0.63;0.60;;;15.00;99.90;;;;;;5095374;28;20416;-70
2022/10/24 11:27:49;;;;;;;1.47;1.07;;;15.10;99.90;;;;;;5095295;28;20418;-71
2022/10/24 11:30:18;;;;;;;3.07;1.03;;;15.20;99.90;;;;;;5094950;28;20534;-70
2022/10/24 11:32:56;;;;;;;1.13;1.03;;;15.40;99.90;;;;;;5095016;28;20437;-70
2022/10/24 11:35:33;;;;;;;0.40;0.40;;;15.50;99.90;;;;;;5095061;28;20438;-71
2022/10/24 11:38:20;;;;;;;3.90;0.70;;;15.70;99.90;;;;;;5095066;28;20854;-71
2022/10/24 11:40:50;;;;;;;1.03;0.80;;;15.60;99.90;;;;;;5094865;28;20487;-69
2022/10/24 11:43:15;;;;;;;1.83;0.87;;;15.70;99.90;;;;;;5094963;28;20431;-68
2022/10/24 11:45:58;;;;;;;0.30;0.30;;;15.80;99.90;;;;;;5094880;28;20433;-70
2022/10/24 11:48:46;;;;;;;1.30;0.97;;;15.80;99.90;;;;;;5094731;28;20271;-70
2022/10/24 11:51:41;;;;;;;0.30;0.30;;;15.70;99.90;;;;;;5094683;28;20403;-72
2022/10/24 11:54:17;;;;;;;0.40;0.40;;;15.70;99.90;;;;;;5092265;28;20899;-70
2022/10/24 11:57:08;;;;;;;0.30;0.30;;;15.80;99.90;;;;;;5094544;28;20416;-70
2022/10/24 11:59:34;;;;;;;0.50;0.50;;;15.90;99.90;;;;;;5094344;28;20509;-69
2022/10/24 12:02:18;;;;;;;0.30;0.30;;;16.00;99.90;;;;;;5094565;28;20494;-69
2022/10/24 12:04:52;;;;;;;0.30;0.30;;;16.00;99.90;;;;;;5094618;28;20168;-69
2022/10/24 12:07:39;;;;;;;0.40;0.40;;;16.10;99.90;;;;;;5094534;28;20496;-70
2022/10/24 12:10:35;;;;;;;0.40;0.40;;;16.00;99.90;;;;;;5093997;28;20465;-70
2022/10/24 12:13:30;;;;;;;0.80;0.80;;;16.10;99.90;;;;;;5094248;28;20490;-71
2022/10/24 12:16:13;;;;;;;0.50;0.50;;;16.20;99.90;;;;;;5094466;28;20391;-70
2022/10/24 12:18:45;;;;;;;0.30;0.30;;;16.20;99.90;;;;;;5094251;28;20428;-70
2022/10/24 12:21:15;;;;;;;0.40;0.40;;;16.30;99.90;;;;;;5094535;28;20485;-71
2022/10/24 12:23:50;;;;;;;0.30;0.30;;;16.20;99.90;;;;;;5093542;28;20402;-71
2022/10/24 12:26:19;;;;;;;0.40;0.40;;;16.10;99.90;;;;;;5093892;28;20528;-70
2022/10/24 12:29:00;;;;;;;0.93;0.43;;;16.00;99.90;;;;;;5093950;28;20444;-71
2022/10/24 12:31:31;;;;;;;0.30;0.30;;;16.00;99.90;;;;;;5094133;28;20394;-69
2022/10/24 12:34:15;;;;;;;0.40;0.40;;;16.00;99.90;;;;;;5093889;28;20978;-71
2022/10/24 12:37:03;;;;;;;0.30;0.30;;;16.10;99.90;;;;;;5093982;28;20414;-71
2022/10/24 12:39:41;;;;;;;0.70;0.70;;;16.00;99.90;;;;;;5093718;28;20794;-69
2022/10/24 12:42:30;;;;;;;0.90;0.90;;;16.10;99.90;;;;;;5094243;28;20417;-71
2022/10/24 12:44:58;;;;;;;1.23;1.13;;;16.20;99.90;;;;;;5046997;28;20417;-69
2022/10/24 12:47:31;;;;;;;0.40;0.40;;;16.20;99.90;;;;;;5093662;28;20406;-70
2022/10/24 12:50:19;;;;;;;0.57;0.57;;;16.10;99.90;;;;;;5093275;28;20465;-69
2022/10/24 12:52:44;;;;;;;0.77;0.77;;;16.10;99.90;;;;;;5092277;28;20794;-71
2022/10/24 12:55:39;;;;;;;0.43;0.43;;;16.10;99.90;;;;;;5093696;28;20402;-68
2022/10/24 12:58:23;;;;;;;0.30;0.30;;;16.10;99.90;;;;;;5071922;28;20183;-69
2022/10/24 13:00:58;;;;;;;0.30;0.30;;;16.00;99.90;;;;;;5093383;28;20430;-71
2022/10/24 13:03:46;;;;;;;0.40;0.40;;;15.90;99.90;;;;;;5093592;28;20485;-69
2022/10/24 13:06:28;;;;;;;0.87;0.73;;;15.70;99.90;;;;;;5092376;28;20418;-68
2022/10/24 13:09:05;;;;;;;1.20;1.10;;;15.60;99.90;;;;;;5093463;28;20493;-71
2022/10/24 13:11:46;;;;;;;1.80;0.63;;;15.50;99.90;;;;;;5093690;28;20409;-69